createdAt,value
2023-01-08T00:02:45.754Z,97428.00
2023-01-08T00:05:47.770Z,97415.75
2023-01-08T00:08:49.607Z,97406.69
2023-01-08T00:11:51.410Z,97426.03
2023-01-08T00:14:53.469Z,97426.78
2023-01-08T00:17:57.350Z,97417.03
2023-01-08T00:20:59.487Z,97406.19
2023-01-08T00:24:01.641Z,97396.34
2023-01-08T00:27:03.636Z,97396.75
2023-01-08T00:30:07.775Z,97402.78
2023-01-08T00:33:11.785Z,97408.06
2023-01-08T00:36:15.195Z,97416.03
2023-01-08T00:39:16.932Z,97423.66
2023-01-08T00:42:19.278Z,97410.38
2023-01-08T00:45:21.264Z,97404.97
2023-01-08T00:48:25.655Z,97392.47
2023-01-08T00:51:27.827Z,97382.03
2023-01-08T00:54:29.758Z,97389.81
2023-01-08T00:57:33.380Z,97388.03
2023-01-08T01:00:35.314Z,97374.84
2023-01-08T01:03:38.548Z,97375.56
2023-01-08T01:06:42.502Z,97374.59
2023-01-08T01:09:44.308Z,97363.03
2023-01-08T01:12:46.535Z,97358.78
2023-01-08T01:15:56.424Z,97356.78
2023-01-08T01:18:59.688Z,97356.78
2023-01-08T01:22:01.866Z,97362.28
2023-01-08T01:25:03.942Z,97378.63
2023-01-08T01:28:06.002Z,97363.53
2023-01-08T01:31:10.805Z,97362.47
2023-01-08T01:34:14.168Z,97353.88
2023-01-08T01:37:16.640Z,97365.03
2023-01-08T01:40:18.797Z,97355.25
2023-01-08T01:43:33.171Z,97353.28
2023-01-08T01:46:38.421Z,97349.75
2023-01-08T01:49:47.165Z,97354.97
2023-01-08T01:52:55.068Z,97354.13
2023-01-08T01:55:58.943Z,97341.88
2023-01-08T01:59:01.181Z,97346.97
2023-01-08T02:02:05.142Z,97353.72
2023-01-08T02:05:09.354Z,97364.34
2023-01-08T02:08:13.551Z,97362.63
2023-01-08T02:11:22.561Z,97359.97
2023-01-08T02:14:35.717Z,97360.81
2023-01-08T02:17:43.688Z,97350.47
2023-01-08T02:20:54.642Z,97359.19
2023-01-08T02:24:03.269Z,97357.63
2023-01-08T02:27:11.948Z,97358.59
2023-01-08T02:30:13.791Z,97356.78
2023-01-08T02:33:16.543Z,97367.41
2023-01-08T02:36:33.244Z,97362.19
2023-01-08T02:39:50.881Z,97359.44
2023-01-08T02:42:59.109Z,97355.16
2023-01-08T02:46:02.499Z,97349.94
2023-01-08T02:49:10.379Z,97348.91
2023-01-08T02:52:15.403Z,97353.28
2023-01-08T02:55:19.764Z,97349.66
2023-01-08T02:58:24.620Z,97354.97
2023-01-08T03:01:29.071Z,97345.50
2023-01-08T03:04:34.620Z,97352.41
2023-01-08T03:07:36.936Z,97335.63
2023-01-08T03:10:43.151Z,97335.72
2023-01-08T03:13:54.049Z,97331.03
2023-01-08T03:17:01.340Z,97337.00
2023-01-08T03:20:08.941Z,97329.22
2023-01-08T03:23:12.529Z,97335.31
2023-01-08T03:26:18.341Z,97327.34
2023-01-08T03:29:24.559Z,97329.03
2023-01-08T03:32:29.463Z,97315.00
2023-01-08T03:35:32.664Z,97319.47
2023-01-08T03:38:40.544Z,97316.72
2023-01-08T03:41:42.755Z,97323.72
2023-01-08T03:44:45.970Z,97322.88
2023-01-08T03:47:48.916Z,97317.56
2023-01-08T03:50:51.069Z,97314.06
2023-01-08T03:53:58.514Z,97305.13
2023-01-08T03:57:00.854Z,97309.41
2023-01-08T04:00:05.564Z,97297.16
2023-01-08T04:03:07.807Z,97284.75
2023-01-08T04:06:09.437Z,97287.31
2023-01-08T04:09:11.274Z,97286.56
2023-01-08T04:12:13.098Z,97284.84
2023-01-08T04:15:16.847Z,97276.97
2023-01-08T04:18:19.080Z,97269.94
2023-01-08T04:21:20.841Z,97265.47
2023-01-08T04:24:22.795Z,97266.44
2023-01-08T04:27:24.610Z,97261.56
2023-01-08T04:30:27.831Z,97263.44
2023-01-08T04:33:29.783Z,97264.44
2023-01-08T04:36:31.737Z,97261.88
2023-01-08T04:39:33.701Z,97248.97
2023-01-08T04:42:35.480Z,97262.25
2023-01-08T04:45:38.643Z,97254.38
2023-01-08T04:48:40.616Z,97252.91
2023-01-08T04:51:42.408Z,97261.47
2023-01-08T04:54:44.593Z,97254.53
2023-01-08T04:57:49.025Z,97256.22
2023-01-08T05:00:52.162Z,97248.44
2023-01-08T05:03:55.035Z,97256.41
2023-01-08T05:06:56.874Z,97245.13
2023-01-08T05:09:58.686Z,97243.16
2023-01-08T05:13:01.343Z,97233.66
2023-01-08T05:16:05.483Z,97237.91
2023-01-08T05:19:07.587Z,97237.91
2023-01-08T05:22:09.425Z,97233.66
2023-01-08T05:25:11.180Z,97235.19
2023-01-08T05:28:13.082Z,97224.66
2023-01-08T05:31:16.587Z,97229.69
2023-01-08T05:34:18.588Z,97232.63
2023-01-08T05:37:20.422Z,97222.31
2023-01-08T05:40:22.336Z,97227.50
2023-01-08T05:43:24.163Z,97235.53
2023-01-08T05:46:27.606Z,97226.78
2023-01-08T05:49:32.137Z,97226.03
2023-01-08T05:52:34.010Z,97233.31
2023-01-08T05:55:36.677Z,97227.91
2023-01-08T05:58:39.006Z,97223.53
2023-01-08T06:01:42.474Z,97215.91
2023-01-08T06:04:44.840Z,97221.13
2023-01-08T06:07:46.603Z,97219.38
2023-01-08T06:10:48.416Z,97212.25
2023-01-08T06:13:50.272Z,97210.78
2023-01-08T06:16:53.423Z,97211.56
2023-01-08T06:19:55.337Z,97210.69
2023-01-08T06:22:57.119Z,97210.88
2023-01-08T06:26:00.916Z,97223.13
2023-01-08T06:29:02.799Z,97222.16
2023-01-08T06:32:06.188Z,97220.47
2023-01-08T06:35:09.001Z,97217.13
2023-01-08T06:38:11.206Z,97218.66
2023-01-08T06:41:13.352Z,97226.13
2023-01-08T06:44:15.845Z,97213.78
2023-01-08T06:47:18.851Z,97225.84
2023-01-08T06:50:20.646Z,97224.16
2023-01-08T06:53:22.971Z,97233.22
2023-01-08T06:56:25.152Z,97235.78
2023-01-08T06:59:26.974Z,97221.72
2023-01-08T07:02:30.300Z,97228.84
2023-01-08T07:05:32.605Z,97227.97
2023-01-08T07:08:34.368Z,97232.34
2023-01-08T07:11:36.162Z,97236.88
2023-01-08T07:14:38.039Z,97233.38
2023-01-08T07:17:41.266Z,97227.13
2023-01-08T07:20:43.227Z,97229.09
2023-01-08T07:23:47.272Z,97229.88
2023-01-08T07:26:49.017Z,97226.44
2023-01-08T07:29:50.925Z,97230.81
2023-01-08T07:32:57.585Z,97231.66
2023-01-08T07:35:59.871Z,97227.31
2023-01-08T07:39:01.646Z,97227.97
2023-01-08T07:42:03.659Z,97223.63
2023-01-08T07:45:06.846Z,97222.69
2023-01-08T07:48:16.611Z,97217.22
2023-01-08T07:51:18.599Z,97219.88
2023-01-08T07:54:20.566Z,97213.94
2023-01-08T07:57:22.403Z,97222.69
2023-01-08T08:00:24.399Z,97213.78
2023-01-08T08:03:27.856Z,97213.53
2023-01-08T08:06:29.810Z,97220.63
2023-01-08T08:09:31.565Z,97221.22
2023-01-08T08:12:33.284Z,97223.97
2023-01-08T08:15:36.321Z,97224.72
2023-01-08T08:18:39.747Z,97212.69
2023-01-08T08:21:42.195Z,97208.91
2023-01-08T08:24:44.234Z,97214.06
2023-01-08T08:27:46.261Z,97215.91
2023-01-08T08:30:48.171Z,97199.22
2023-01-08T08:33:51.610Z,97200.94
2023-01-08T08:36:53.536Z,97202.50
2023-01-08T08:39:55.400Z,97202.31
2023-01-08T08:42:58.167Z,97188.28
2023-01-08T08:46:01.420Z,97174.25
2023-01-08T08:49:04.686Z,97183.75
2023-01-08T08:52:07.029Z,97186.13
2023-01-08T08:55:13.172Z,97179.00
2023-01-08T08:58:15.240Z,97181.41
2023-01-08T09:01:17.393Z,97187.66
2023-01-08T09:04:20.683Z,97186.88
2023-01-08T09:07:23.269Z,97179.88
2023-01-08T09:10:25.214Z,97186.22
2023-01-08T09:13:27.343Z,97188.78
2023-01-08T09:16:28.953Z,97193.94
2023-01-08T09:19:32.417Z,97191.94
2023-01-08T09:22:37.351Z,97193.56
2023-01-08T09:25:39.332Z,97192.59
2023-01-08T09:28:41.103Z,97199.53
2023-01-08T09:31:43.122Z,97187.31
2023-01-08T09:34:46.325Z,97188.16
2023-01-08T09:37:54.860Z,97202.81
2023-01-08T09:41:01.995Z,97197.41
2023-01-08T09:44:05.925Z,97196.53
2023-01-08T09:47:22.195Z,97195.34
2023-01-08T09:50:27.653Z,97181.38
2023-01-08T09:53:29.917Z,97191.84
2023-01-08T09:56:34.165Z,97186.53
2023-01-08T09:59:36.435Z,97195.34
2023-01-08T10:02:40.791Z,97194.50
2023-01-08T10:05:44.565Z,97187.38
2023-01-08T10:08:46.709Z,97183.88
2023-01-08T10:11:48.594Z,97184.78
2023-01-08T10:14:52.112Z,97185.16
2023-01-08T10:18:02.109Z,97163.06
2023-01-08T10:21:05.635Z,97144.41
2023-01-08T10:24:08.109Z,97160.31
2023-01-08T10:27:14.061Z,97161.94
2023-01-08T10:30:18.442Z,97153.03
2023-01-08T10:33:24.743Z,97170.59
2023-01-08T10:36:28.129Z,97165.09
2023-01-08T10:39:31.129Z,97157.72
2023-01-08T10:42:35.314Z,97160.97
2023-01-08T10:45:39.438Z,97149.00
2023-01-08T10:48:50.490Z,97140.69
2023-01-08T10:51:55.697Z,97132.44
2023-01-08T10:54:57.838Z,97135.78
2023-01-08T10:58:03.004Z,97145.03
2023-01-08T11:01:15.908Z,97142.47
2023-01-08T11:04:26.661Z,97137.16
2023-01-08T11:07:31.279Z,97138.09
2023-01-08T11:10:34.973Z,97129.66
2023-01-08T11:13:38.190Z,97122.03
2023-01-08T11:16:41.991Z,97126.72
2023-01-08T11:19:44.004Z,97123.59
2023-01-08T11:22:47.468Z,97120.66
2023-01-08T11:25:55.871Z,97124.47
2023-01-08T11:29:03.942Z,97120.72
2023-01-08T11:32:29.365Z,97118.63
2023-01-08T11:35:36.427Z,97111.97
2023-01-08T11:38:39.586Z,97112.16
2023-01-08T11:42:07.578Z,97113.03
2023-01-08T11:45:24.374Z,97098.50
2023-01-08T11:48:47.339Z,97100.97
2023-01-08T11:52:07.072Z,97097.63
2023-01-08T11:55:24.427Z,97080.84
2023-01-08T11:58:38.466Z,97080.69
2023-01-08T12:01:50.203Z,97072.81
2023-01-08T12:05:30.555Z,97060.91
2023-01-08T12:08:44.486Z,97063.28
2023-01-08T12:11:55.599Z,97048.00
2023-01-08T12:15:07.658Z,97058.19
2023-01-08T12:18:33.200Z,97057.41
2023-01-08T12:21:58.335Z,97045.66
2023-01-08T12:25:36.559Z,97034.53
2023-01-08T12:29:03.975Z,97032.72
2023-01-08T12:32:23.197Z,97036.34
2023-01-08T12:35:29.244Z,97023.78
2023-01-08T12:38:36.134Z,97029.06
2023-01-08T12:41:43.484Z,97013.91
2023-01-08T12:44:47.548Z,97010.94
2023-01-08T12:47:55.154Z,97015.47
2023-01-08T12:51:01.883Z,97007.47
2023-01-08T12:54:14.471Z,96998.97
2023-01-08T12:57:23.329Z,97007.19
2023-01-08T13:00:37.792Z,97004.13
2023-01-08T13:03:40.356Z,97000.47
2023-01-08T13:06:57.539Z,96997.47
2023-01-08T13:10:04.880Z,96992.97
2023-01-08T13:13:25.079Z,96986.38
2023-01-08T13:16:28.551Z,96988.28
2023-01-08T13:19:35.331Z,96975.69
2023-01-08T13:22:38.042Z,96971.09
2023-01-08T13:25:52.102Z,96971.50
2023-01-08T13:28:54.071Z,96963.63
2023-01-08T13:31:57.501Z,96950.38
2023-01-08T13:35:19.341Z,96954.22
2023-01-08T13:38:22.359Z,96941.66
2023-01-08T13:41:26.038Z,96950.13
2023-01-08T13:44:29.935Z,96949.28
2023-01-08T13:47:35.203Z,96937.78
2023-01-08T13:50:38.541Z,96934.81
2023-01-08T13:53:42.457Z,96940.13
2023-01-08T13:56:46.614Z,96932.56
2023-01-08T13:59:53.702Z,96930.75
2023-01-08T14:02:57.150Z,96919.66
2023-01-08T14:06:07.170Z,96914.56
2023-01-08T14:09:21.032Z,96923.06
2023-01-08T14:12:24.902Z,96920.41
2023-01-08T14:15:29.240Z,96923.16
2023-01-08T14:18:32.801Z,96924.03
2023-01-08T14:21:37.823Z,96930.31
2023-01-08T14:24:45.837Z,96921.56
2023-01-08T14:27:59.592Z,96922.75
2023-01-08T14:31:01.637Z,96916.84
2023-01-08T14:34:05.421Z,96914.78
2023-01-08T14:37:10.838Z,96916.78
2023-01-08T14:40:17.353Z,96920.56
2023-01-08T14:43:21.717Z,96918.22
2023-01-08T14:46:27.688Z,96921.00
2023-01-08T14:49:34.634Z,96916.91
2023-01-08T14:52:40.548Z,96910.00
2023-01-08T14:55:45.670Z,96905.00
2023-01-08T14:58:48.648Z,96901.28
2023-01-08T15:01:54.645Z,96896.28
2023-01-08T15:05:15.178Z,96897.72
2023-01-08T15:08:25.422Z,96895.75
2023-01-08T15:11:31.026Z,96888.06
2023-01-08T15:14:34.661Z,96885.97
2023-01-08T15:17:36.549Z,96893.84
2023-01-08T15:20:39.834Z,96887.41
2023-01-08T15:23:46.510Z,96884.38
2023-01-08T15:26:48.492Z,96879.66
2023-01-08T15:29:52.525Z,96882.69
2023-01-08T15:32:54.459Z,96874.75
2023-01-08T15:35:58.469Z,96866.03
2023-01-08T15:39:00.466Z,96864.50
2023-01-08T15:42:40.298Z,96861.94
2023-01-08T15:45:44.293Z,96853.22
2023-01-08T15:48:46.030Z,96851.22
2023-01-08T15:51:51.548Z,96856.34
2023-01-08T15:54:53.394Z,96860.13
2023-01-08T15:57:56.135Z,96848.75
2023-01-08T16:00:58.047Z,96848.97
2023-01-08T16:04:00.337Z,96844.88
2023-01-08T16:07:03.673Z,96846.78
2023-01-08T16:10:06.384Z,96863.75
2023-01-08T16:13:10.303Z,96856.75
2023-01-08T16:16:16.076Z,96852.41
2023-01-08T16:19:18.348Z,96856.25
2023-01-08T16:22:21.789Z,96852.00
2023-01-08T16:25:24.824Z,96852.00
2023-01-08T16:28:27.030Z,96846.97
2023-01-08T16:31:28.704Z,96843.41
2023-01-08T16:34:30.629Z,96852.00
2023-01-08T16:37:33.911Z,96850.41
2023-01-08T16:40:36.516Z,96867.09
2023-01-08T16:43:41.262Z,96868.41
2023-01-08T16:46:45.575Z,96856.47
2023-01-08T16:49:50.288Z,96867.94
2023-01-08T16:52:57.144Z,96856.19
2023-01-08T16:56:00.269Z,96868.19
2023-01-08T16:59:05.314Z,96859.09
2023-01-08T17:02:10.967Z,96854.34
2023-01-08T17:05:12.726Z,96868.19
2023-01-08T17:08:17.229Z,96858.03
2023-01-08T17:11:21.519Z,96859.50
2023-01-08T17:14:23.381Z,96857.09
2023-01-08T17:17:25.367Z,96858.13
2023-01-08T17:20:30.342Z,96858.44
2023-01-08T17:23:34.342Z,96854.22
2023-01-08T17:26:36.317Z,96855.94
2023-01-08T17:29:41.373Z,96850.28
2023-01-08T17:32:43.189Z,96840.63
2023-01-08T17:35:44.939Z,96837.56
2023-01-08T17:38:50.551Z,96842.63
2023-01-08T17:42:14.009Z,96847.94
2023-01-08T17:45:17.618Z,96839.22
2023-01-08T17:48:19.549Z,96841.03
2023-01-08T17:51:21.486Z,96843.56
2023-01-08T17:54:27.165Z,96841.56
2023-01-08T17:57:31.597Z,96837.97
2023-01-08T18:00:33.726Z,96827.38
2023-01-08T18:03:35.335Z,96830.78
2023-01-08T18:06:37.635Z,96830.31
2023-01-08T18:09:40.763Z,96822.72
2023-01-08T18:12:42.497Z,96822.16
2023-01-08T18:15:44.518Z,96813.91
2023-01-08T18:18:46.329Z,96819.22
2023-01-08T18:25:10.633Z,96803.66
2023-01-08T18:28:12.750Z,96815.50
2023-01-08T18:31:15.413Z,96812.00
2023-01-08T18:34:17.487Z,96804.25
2023-01-08T18:37:19.369Z,96802.34
2023-01-08T18:40:22.655Z,96804.06
2023-01-08T18:43:25.573Z,96805.66
2023-01-08T18:46:28.530Z,96802.16
2023-01-08T18:49:30.329Z,96812.19
2023-01-08T18:52:32.946Z,96808.41
2023-01-08T18:55:36.223Z,96808.25
2023-01-08T18:58:38.048Z,96796.69
2023-01-08T19:01:40.121Z,96796.84
2023-01-08T19:04:42.016Z,96787.38
2023-01-08T19:07:44.086Z,96787.50
2023-01-08T19:10:47.294Z,96785.09
2023-01-08T19:13:48.989Z,96786.16
2023-01-08T19:16:51.929Z,96773.84
2023-01-08T19:19:53.866Z,96782.00
2023-01-08T19:22:55.843Z,96782.19
2023-01-08T19:25:59.123Z,96780.66
2023-01-08T19:29:01.904Z,96773.00
2023-01-08T19:32:04.954Z,96769.28
2023-01-08T19:35:07.396Z,96760.59
2023-01-08T19:38:09.228Z,96754.78
2023-01-08T19:41:34.339Z,96755.94
2023-01-08T19:44:36.114Z,96748.53
2023-01-08T19:47:38.144Z,96751.28
2023-01-08T19:50:40.527Z,96737.19
2023-01-08T19:53:42.887Z,96735.84
2023-01-08T19:56:50.044Z,96734.13
2023-01-08T19:59:51.909Z,96730.06
2023-01-08T20:02:53.726Z,96715.97
2023-01-08T20:05:55.582Z,96731.78
2023-01-08T20:08:59.661Z,96727.97
2023-01-08T20:12:03.009Z,96726.84
2023-01-08T20:15:06.237Z,96730.94
2023-01-08T20:18:09.983Z,96723.72
2023-01-08T20:21:15.388Z,96714.84
2023-01-08T20:24:17.443Z,96721.84
2023-01-08T20:27:20.774Z,96716.19
2023-01-08T20:30:22.625Z,96699.44
2023-01-08T20:33:24.484Z,96695.19
2023-01-08T20:36:28.892Z,96688.72
2023-01-08T20:39:30.892Z,96692.31
2023-01-08T20:42:34.657Z,96683.88
2023-01-08T20:45:40.493Z,96679.44
2023-01-08T20:48:47.499Z,96685.50
2023-01-08T20:51:58.613Z,96685.59
2023-01-08T20:55:04.515Z,96697.13
2023-01-08T20:58:07.741Z,96683.88
2023-01-08T21:01:12.301Z,96693.19
2023-01-08T21:04:14.519Z,96677.28
2023-01-08T21:07:16.986Z,96681.53
2023-01-08T21:10:18.950Z,96676.22
2023-01-08T21:13:22.389Z,96667.16
2023-01-08T21:16:28.544Z,96662.03
2023-01-08T21:19:30.626Z,96657.13
2023-01-08T21:22:32.530Z,96665.06
2023-01-08T21:25:36.961Z,96655.22
2023-01-08T21:28:41.280Z,96639.22
2023-01-08T21:31:43.594Z,96637.78
2023-01-08T21:34:45.964Z,96634.59
2023-01-08T21:37:47.963Z,96626.84
2023-01-08T21:40:58.788Z,96616.25
2023-01-08T21:44:21.273Z,96619.84
2023-01-08T21:47:22.997Z,96619.25
2023-01-08T21:50:24.911Z,96608.28
2023-01-08T21:53:34.764Z,96599.75
2023-01-08T21:56:40.115Z,96598.16
2023-01-08T21:59:46.055Z,96589.63
2023-01-08T22:02:47.970Z,96578.28
2023-01-08T22:05:59.898Z,96585.72
2023-01-08T22:09:01.797Z,96584.78
2023-01-08T22:12:03.869Z,96572.22
2023-01-08T22:15:09.827Z,96566.16
2023-01-08T22:18:11.879Z,96563.22
2023-01-08T22:21:13.891Z,96564.91
2023-01-08T22:24:15.616Z,96552.59
2023-01-08T22:27:17.476Z,96543.31
2023-01-08T22:30:21.091Z,96543.00
2023-01-08T22:33:23.084Z,96539.31
2023-01-08T22:36:25.650Z,96533.16
2023-01-08T22:39:27.622Z,96534.84
2023-01-08T22:42:29.684Z,96530.63
2023-01-08T22:45:32.980Z,96528.31
2023-01-08T22:48:35.523Z,96534.47
2023-01-08T22:51:37.303Z,96516.00
2023-01-08T22:54:39.435Z,96510.41
2023-01-08T22:57:41.092Z,96511.16
2023-01-08T23:00:44.787Z,96519.22
2023-01-08T23:03:49.023Z,96508.50
2023-01-08T23:06:50.762Z,96509.06
2023-01-08T23:09:52.480Z,96498.13
2023-01-08T23:12:55.073Z,96481.38
2023-01-08T23:15:58.280Z,96486.03
2023-01-08T23:19:01.323Z,96481.47
2023-01-08T23:22:03.298Z,96484.03
2023-01-08T23:25:06.040Z,96470.66
2023-01-08T23:28:08.022Z,96467.09
2023-01-08T23:31:14.790Z,96460.06
2023-01-08T23:34:17.784Z,96461.56
2023-01-08T23:37:20.315Z,96464.22
2023-01-08T23:40:22.183Z,96468.56
2023-01-08T23:43:24.417Z,96462.31
2023-01-08T23:46:27.799Z,96471.13
2023-01-08T23:49:29.782Z,96463.16
2023-01-08T23:52:32.905Z,96465.59
2023-01-08T23:55:35.032Z,96460.50
2023-01-08T23:58:37.310Z,96450.84
